Time;durP1;ratioP1;P1;durP2;ratioP2;P2;SDS_P1;SDS_P2;PMS_P1;PMS_P2;Temp;Humidity;BMP_temperature;BMP_pressure;BME280_temperature;BME280_humidity;BME280_pressure;Samples;Min_cycle;Max_cycle;Signal;HPM_P1;HPM_P2
2021/05/12 00:01:20;;;;;;;0.30;0.20;;;;;;;13.49;100.00;99724.84;4981891;28;20544;-57
2021/05/12 00:03:52;;;;;;;0.40;0.20;;;;;;;13.47;100.00;99718.72;4991618;28;20852;-57
2021/05/12 00:06:20;;;;;;;0.30;0.20;;;;;;;13.50;100.00;99723.88;4995249;28;20528;-57
2021/05/12 00:08:47;;;;;;;0.30;0.20;;;;;;;13.55;100.00;99720.97;4995160;28;20519;-58
2021/05/12 00:11:14;;;;;;;0.30;0.20;;;;;;;13.54;100.00;99717.44;4975534;28;20541;-57
2021/05/12 00:13:44;;;;;;;0.30;0.20;;;;;;;13.55;100.00;99715.63;4988722;28;21045;-57
2021/05/12 00:16:11;;;;;;;0.30;0.20;;;;;;;13.49;100.00;99713.28;4995034;28;20920;-57
2021/05/12 00:18:44;;;;;;;0.30;0.20;;;;;;;13.46;100.00;99718.78;4994637;28;20446;-57
2021/05/12 00:21:15;;;;;;;0.30;0.20;;;;;;;13.40;100.00;99708.41;4994869;28;20816;-57
2021/05/12 00:23:58;;;;;;;0.30;0.20;;;;;;;13.43;100.00;99711.81;4994786;28;20600;-57
2021/05/12 00:26:33;;;;;;;0.30;0.20;;;;;;;13.61;100.00;99718.03;4994730;28;20457;-57
2021/05/12 00:29:01;;;;;;;0.30;0.20;;;;;;;13.82;100.00;99722.25;4994778;28;20575;-57
2021/05/12 00:31:28;;;;;;;0.30;0.20;;;;;;;13.69;100.00;99726.50;4994097;28;20816;-57
2021/05/12 00:33:55;;;;;;;0.30;0.20;;;;;;;13.67;100.00;99717.69;4993973;28;20564;-57
2021/05/12 00:36:23;;;;;;;0.30;0.20;;;;;;;13.68;100.00;99721.22;4994654;28;20800;-57
2021/05/12 00:38:50;;;;;;;0.30;0.20;;;;;;;13.61;100.00;99724.22;4977144;28;20477;-57
2021/05/12 00:41:25;;;;;;;0.30;0.20;;;;;;;13.55;100.00;99723.66;4994277;28;20457;-57
2021/05/12 00:44:05;;;;;;;0.30;0.20;;;;;;;13.47;100.00;99723.19;4977050;28;20505;-57
2021/05/12 00:46:46;;;;;;;0.30;0.20;;;;;;;13.73;100.00;99729.91;4994216;28;20982;-57
2021/05/12 00:49:17;;;;;;;0.40;0.20;;;;;;;13.54;100.00;99730.81;4995128;28;20579;-57
2021/05/12 00:51:44;;;;;;;0.30;0.20;;;;;;;13.53;100.00;99731.75;4975333;28;20677;-57
2021/05/12 00:54:12;;;;;;;0.30;0.20;;;;;;;13.50;100.00;99721.22;4987620;28;20473;-57
2021/05/12 00:56:42;;;;;;;0.30;0.20;;;;;;;13.50;100.00;99723.88;4974828;28;20852;-57
2021/05/12 00:59:10;;;;;;;0.30;0.20;;;;;;;13.49;100.00;99729.31;4988733;28;20528;-57
2021/05/12 01:01:38;;;;;;;0.30;0.20;;;;;;;13.47;100.00;99728.53;4999402;28;20815;-57
2021/05/12 01:04:09;;;;;;;0.30;0.20;;;;;;;13.56;100.00;99734.25;4985296;28;20557;-57
2021/05/12 01:06:39;;;;;;;0.30;0.20;;;;;;;13.49;100.00;99734.66;4993930;28;20827;-57
2021/05/12 01:09:08;;;;;;;0.30;0.20;;;;;;;13.43;100.00;99737.59;4993905;28;20897;-57
2021/05/12 01:11:36;;;;;;;0.30;0.20;;;;;;;13.41;100.00;99739.50;4993574;28;20457;-57
2021/05/12 01:14:04;;;;;;;0.30;0.20;;;;;;;13.38;100.00;99737.84;4993473;28;20502;-57
2021/05/12 01:16:31;;;;;;;0.87;0.87;;;;;;;13.44;100.00;99739.38;4976900;28;20465;-57
2021/05/12 01:18:59;;;;;;;0.30;0.20;;;;;;;13.45;100.00;99741.09;4993470;28;20484;-57
2021/05/12 01:21:29;;;;;;;0.30;0.20;;;;;;;13.49;100.00;99748.88;4993315;28;20453;-57
2021/05/12 01:23:56;;;;;;;0.30;0.20;;;;;;;13.37;100.00;99743.25;4993816;28;20553;-57
2021/05/12 01:26:26;;;;;;;0.30;0.20;;;;;;;13.44;100.00;99748.25;4994858;28;20453;-57
2021/05/12 01:28:57;;;;;;;0.40;0.20;;;;;;;13.37;100.00;99752.13;4994399;28;20940;-57
2021/05/12 01:31:41;;;;;;;0.30;0.20;;;;;;;13.31;100.00;99745.31;4994255;28;20575;-57
2021/05/12 01:34:15;;;;;;;0.40;0.20;;;;;;;13.25;100.00;99747.38;4974156;28;20565;-57
2021/05/12 01:36:47;;;;;;;0.40;0.20;;;;;;;13.33;100.00;99746.09;4990418;28;20480;-57
2021/05/12 01:39:16;;;;;;;0.40;0.20;;;;;;;13.22;100.00;99740.41;4993505;28;20457;-57
2021/05/12 01:41:44;;;;;;;0.87;0.87;;;;;;;13.36;100.00;99754.88;4993025;28;20505;-57
2021/05/12 01:44:12;;;;;;;0.30;0.20;;;;;;;13.22;100.00;99748.41;4992688;28;20477;-57
2021/05/12 01:46:42;;;;;;;0.30;0.20;;;;;;;13.42;100.00;99755.44;4993102;28;20484;-57
2021/05/12 01:49:09;;;;;;;0.30;0.20;;;;;;;13.29;100.00;99748.94;4992684;28;20555;-57
2021/05/12 01:51:40;;;;;;;0.30;0.20;;;;;;;13.23;100.00;99752.81;4975659;28;20538;-57
2021/05/12 01:54:09;;;;;;;0.30;0.20;;;;;;;13.20;100.00;99752.09;4981097;28;20498;-57
2021/05/12 01:56:39;;;;;;;0.30;0.20;;;;;;;13.15;100.00;99746.06;4973496;28;20473;-57
2021/05/12 01:59:07;;;;;;;0.40;0.30;;;;;;;13.20;100.00;99758.28;4986717;28;20815;-57
2021/05/12 02:01:38;;;;;;;0.30;0.20;;;;;;;13.11;100.00;99753.34;4998264;28;20485;-57
2021/05/12 02:04:11;;;;;;;0.30;0.20;;;;;;;13.10;100.00;99748.94;4984233;28;20915;-56
2021/05/12 02:06:41;;;;;;;0.30;0.20;;;;;;;13.14;100.00;99755.00;4992704;28;20504;-57
2021/05/12 02:09:08;;;;;;;0.30;0.20;;;;;;;13.09;100.00;99741.88;4992746;28;20892;-57
2021/05/12 02:11:38;;;;;;;0.73;0.67;;;;;;;13.10;100.00;99754.28;4992713;28;20453;-57
2021/05/12 02:14:12;;;;;;;0.30;0.20;;;;;;;13.08;100.00;99749.97;4992975;28;20970;-57
2021/05/12 02:16:39;;;;;;;0.30;0.20;;;;;;;13.16;100.00;99755.81;4975769;28;20453;-57
2021/05/12 02:19:10;;;;;;;0.30;0.20;;;;;;;13.22;100.00;99744.88;4992436;28;20442;-58
2021/05/12 02:21:39;;;;;;;0.30;0.20;;;;;;;13.11;100.00;99749.81;4992869;28;20445;-57
2021/05/12 02:24:07;;;;;;;0.30;0.20;;;;;;;13.16;100.00;99739.81;4993108;28;20481;-57
2021/05/12 02:26:37;;;;;;;0.30;0.20;;;;;;;13.22;100.00;99744.88;4975127;28;20457;-57
2021/05/12 02:29:05;;;;;;;0.40;0.20;;;;;;;13.13;100.00;99751.47;4972959;28;20486;-57
2021/05/12 02:31:32;;;;;;;0.30;0.20;;;;;;;13.15;100.00;99756.72;4985971;28;20449;-57
2021/05/12 02:33:59;;;;;;;0.30;0.20;;;;;;;13.07;100.00;99756.25;4975097;28;20473;-57
2021/05/12 02:36:26;;;;;;;0.30;0.20;;;;;;;13.02;100.00;99751.13;4992104;28;20521;-57
2021/05/12 02:38:54;;;;;;;0.30;0.20;;;;;;;12.97;100.00;99755.81;4975123;28;20611;-57
2021/05/12 02:41:21;;;;;;;0.30;0.20;;;;;;;12.93;100.00;99748.91;4991636;28;20458;-57
2021/05/12 02:43:48;;;;;;;1.00;1.00;;;;;;;12.92;100.00;99755.16;4992576;28;20481;-58
2021/05/12 02:46:15;;;;;;;0.30;0.20;;;;;;;12.85;100.00;99749.25;4993105;28;20457;-58
2021/05/12 02:48:41;;;;;;;0.40;0.20;;;;;;;12.88;100.00;99748.22;4993137;28;20520;-58
2021/05/12 02:51:08;;;;;;;0.30;0.20;;;;;;;12.94;100.00;99746.16;4992734;28;20461;-58
2021/05/12 02:53:35;;;;;;;0.50;0.50;;;;;;;12.86;100.00;99742.09;4992626;28;20469;-58
2021/05/12 02:56:02;;;;;;;0.30;0.20;;;;;;;12.86;100.00;99736.75;4992255;28;20441;-58
2021/05/12 02:58:28;;;;;;;0.30;0.20;;;;;;;12.93;100.00;99743.56;4992887;28;20504;-58
2021/05/12 03:00:55;;;;;;;0.30;0.20;;;;;;;12.94;100.00;99751.47;4992916;28;20449;-58
2021/05/12 03:03:21;;;;;;;0.30;0.20;;;;;;;12.92;100.00;99748.03;4994817;28;20844;-58
2021/05/12 03:05:48;;;;;;;0.30;0.20;;;;;;;12.91;100.00;99754.31;4988623;28;20453;-58
2021/05/12 03:08:15;;;;;;;0.30;0.20;;;;;;;12.89;100.00;99756.19;4992668;28;21076;-58
2021/05/12 03:10:42;;;;;;;0.30;0.20;;;;;;;12.89;100.00;99752.66;4993538;28;20512;-58
2021/05/12 03:13:09;;;;;;;0.30;0.20;;;;;;;12.91;100.00;99759.63;4993038;28;20774;-58
2021/05/12 03:15:36;;;;;;;0.30;0.20;;;;;;;12.91;100.00;99754.31;4992987;28;20446;-58
2021/05/12 03:18:05;;;;;;;0.30;0.20;;;;;;;12.86;100.00;99750.09;4992305;28;20503;-58
2021/05/12 03:20:33;;;;;;;0.30;0.20;;;;;;;12.86;100.00;99763.44;4992198;28;20446;-58
2021/05/12 03:23:00;;;;;;;0.30;0.20;;;;;;;12.95;100.00;99760.34;4992364;28;20473;-58
2021/05/12 03:25:27;;;;;;;0.30;0.20;;;;;;;12.99;100.00;99759.25;4992862;28;20454;-58
2021/05/12 03:27:55;;;;;;;0.40;0.40;;;;;;;12.87;100.00;99754.50;4992288;28;20453;-58
2021/05/12 03:30:29;;;;;;;0.30;0.20;;;;;;;12.90;100.00;99760.56;4992281;28;20504;-58
2021/05/12 03:32:57;;;;;;;0.30;0.20;;;;;;;12.91;100.00;99751.63;4992538;28;20448;-56
2021/05/12 03:35:24;;;;;;;1.90;1.20;;;;;;;12.88;100.00;99759.75;4991260;28;20446;-56
2021/05/12 03:37:51;;;;;;;0.30;0.20;;;;;;;12.81;100.00;99765.47;4991940;28;20527;-56
2021/05/12 03:40:19;;;;;;;0.30;0.20;;;;;;;12.81;100.00;99758.31;4991501;28;20461;-56
2021/05/12 03:42:45;;;;;;;0.30;0.20;;;;;;;12.78;100.00;99760.28;4991300;28;20446;-56
2021/05/12 03:45:12;;;;;;;0.30;0.20;;;;;;;12.76;100.00;99757.69;4991476;28;20521;-56
2021/05/12 03:47:45;;;;;;;0.30;0.20;;;;;;;12.78;100.00;99762.94;4991151;28;21012;-56
2021/05/12 03:50:12;;;;;;;0.30;0.20;;;;;;;12.75;100.00;99755.97;4991826;28;20908;-56
2021/05/12 03:52:39;;;;;;;0.30;0.20;;;;;;;12.79;100.00;99767.34;4992027;28;20487;-55
2021/05/12 03:55:07;;;;;;;0.30;0.20;;;;;;;12.76;100.00;99768.34;4991806;28;20443;-56
2021/05/12 03:57:36;;;;;;;0.40;0.40;;;;;;;12.74;100.00;99763.06;4992196;28;20564;-56
2021/05/12 04:00:06;;;;;;;0.30;0.20;;;;;;;12.70;100.00;99769.47;4991985;28;20446;-56
2021/05/12 04:02:33;;;;;;;0.30;0.20;;;;;;;12.77;100.00;99763.88;5000981;28;20468;-56
2021/05/12 04:05:00;;;;;;;0.30;0.20;;;;;;;12.78;100.00;99771.81;4980461;28;21018;-56
2021/05/12 04:07:28;;;;;;;0.30;0.20;;;;;;;12.74;100.00;99773.72;4992243;28;20507;-56
2021/05/12 04:09:55;;;;;;;0.30;0.20;;;;;;;12.83;100.00;99777.78;4994952;28;20563;-56
2021/05/12 04:12:21;;;;;;;0.30;0.20;;;;;;;12.84;100.00;99776.84;4995392;28;20935;-56
2021/05/12 04:14:48;;;;;;;0.30;0.20;;;;;;;12.97;100.00;99785.16;4995486;28;20842;-56
2021/05/12 04:17:15;;;;;;;0.50;0.50;;;;;;;12.85;100.00;99780.38;4995654;28;20526;-56
2021/05/12 04:19:41;;;;;;;0.30;0.20;;;;;;;12.87;100.00;99786.50;4995334;28;20484;-56
2021/05/12 04:22:08;;;;;;;0.30;0.20;;;;;;;12.97;100.00;99790.50;4994960;28;20561;-56
2021/05/12 04:24:34;;;;;;;0.30;0.20;;;;;;;12.87;100.00;99784.69;4995564;28;20492;-56
2021/05/12 04:27:02;;;;;;;0.30;0.20;;;;;;;13.26;100.00;99792.69;4995159;28;20460;-56
2021/05/12 04:29:29;;;;;;;0.30;0.20;;;;;;;12.95;100.00;99790.56;4994663;28;20489;-56
2021/05/12 04:31:56;;;;;;;0.30;0.20;;;;;;;12.88;100.00;99790.91;4994994;28;20500;-56
2021/05/12 04:34:22;;;;;;;0.30;0.20;;;;;;;12.85;100.00;99785.72;4995401;28;20473;-57
2021/05/12 04:36:49;;;;;;;0.30;0.20;;;;;;;12.91;100.00;99786.31;4997017;28;20453;-57
2021/05/12 04:39:16;;;;;;;0.30;0.20;;;;;;;13.09;100.00;99781.06;4995422;28;20556;-57
2021/05/12 04:41:43;;;;;;;0.30;0.20;;;;;;;12.94;100.00;99785.31;4995001;28;20508;-57
2021/05/12 04:44:10;;;;;;;0.30;0.20;;;;;;;12.83;100.00;99780.44;4994586;28;20509;-57
2021/05/12 04:46:39;;;;;;;0.30;0.20;;;;;;;12.89;100.00;99785.53;4994995;28;20939;-57
2021/05/12 04:49:07;;;;;;;0.30;0.20;;;;;;;12.90;100.00;99791.72;4994581;28;20899;-57
2021/05/12 04:51:35;;;;;;;0.30;0.20;;;;;;;12.98;100.00;99787.75;4994381;28;20465;-57
2021/05/12 04:54:03;;;;;;;0.30;0.20;;;;;;;12.85;100.00;99783.91;4994538;28;20531;-57
2021/05/12 04:56:30;;;;;;;0.30;0.20;;;;;;;13.12;100.00;99791.56;4994285;28;20454;-57
2021/05/12 04:58:57;;;;;;;0.30;0.20;;;;;;;12.90;100.00;99781.06;4994176;28;20450;-57
2021/05/12 05:01:24;;;;;;;0.30;0.20;;;;;;;12.91;100.00;99788.13;4998577;28;20463;-57
2021/05/12 05:03:51;;;;;;;0.30;0.20;;;;;;;12.97;100.00;99791.34;4972631;28;20558;-57
2021/05/12 05:06:18;;;;;;;0.30;0.20;;;;;;;12.94;100.00;99785.31;4975876;28;20453;-57
2021/05/12 05:08:44;;;;;;;0.30;0.20;;;;;;;13.11;100.00;99789.84;4982355;28;20490;-57
2021/05/12 05:11:13;;;;;;;0.30;0.20;;;;;;;13.04;100.00;99795.47;4994663;28;20461;-57
2021/05/12 05:13:39;;;;;;;0.30;0.20;;;;;;;13.02;100.00;99801.84;4994780;28;20561;-57
2021/05/12 05:16:07;;;;;;;0.43;0.43;;;;;;;13.00;100.00;99811.69;4994585;28;20454;-57
2021/05/12 05:18:33;;;;;;;0.30;0.20;;;;;;;13.16;100.00;99804.72;4994056;28;21008;-57
2021/05/12 05:21:02;;;;;;;0.30;0.20;;;;;;;13.03;100.00;99803.56;4994336;28;20860;-57
2021/05/12 05:23:29;;;;;;;0.30;0.20;;;;;;;13.13;100.00;99814.66;4994284;28;20483;-57
2021/05/12 05:25:55;;;;;;;0.30;0.20;;;;;;;13.15;100.00;99815.44;4994899;28;20489;-57
2021/05/12 05:28:22;;;;;;;0.30;0.20;;;;;;;12.99;100.00;99821.50;4994637;28;20493;-57
2021/05/12 05:30:49;;;;;;;0.60;0.60;;;;;;;13.03;100.00;99822.25;4994717;28;20544;-57
2021/05/12 05:33:16;;;;;;;0.30;0.20;;;;;;;13.07;100.00;99817.63;4994443;28;20886;-57
2021/05/12 05:35:42;;;;;;;0.30;0.20;;;;;;;13.19;100.00;99830.44;4994456;28;20457;-57
2021/05/12 05:38:09;;;;;;;0.30;0.20;;;;;;;13.07;100.00;99822.94;4994136;28;20809;-57
2021/05/12 05:40:35;;;;;;;0.30;0.20;;;;;;;13.10;100.00;99815.66;4994287;28;20453;-57
2021/05/12 05:43:03;;;;;;;0.30;0.20;;;;;;;13.36;100.00;99821.63;4993948;28;20469;-57
2021/05/12 05:45:30;;;;;;;1.13;0.97;;;;;;;13.22;100.00;99825.81;4994247;28;20457;-57
2021/05/12 05:47:58;;;;;;;0.30;0.20;;;;;;;13.30;100.00;99823.66;4994011;28;20457;-57
2021/05/12 05:50:25;;;;;;;0.30;0.20;;;;;;;13.23;100.00;99816.84;4994103;28;20500;-57
2021/05/12 05:52:55;;;;;;;0.30;0.20;;;;;;;13.69;100.00;99822.66;4993580;28;20863;-57
2021/05/12 05:55:23;;;;;;;0.30;0.20;;;;;;;13.26;100.00;99816.69;4977167;28;20473;-57
2021/05/12 05:57:51;;;;;;;0.30;0.20;;;;;;;13.22;100.00;99819.59;4989803;28;20457;-57
2021/05/12 06:00:19;;;;;;;0.30;0.20;;;;;;;13.38;100.00;99827.75;4983676;28;20454;-57
2021/05/12 06:02:45;;;;;;;0.30;0.20;;;;;;;13.47;100.00;99828.19;4998232;28;20450;-57
2021/05/12 06:05:12;;;;;;;0.40;0.20;;;;;;;13.39;100.00;99826.81;4985127;28;20512;-57
2021/05/12 06:07:40;;;;;;;0.40;0.20;;;;;;;13.48;100.00;99827.25;4993974;28;20461;-57
2021/05/12 06:10:08;;;;;;;0.30;0.20;;;;;;;13.49;100.00;99834.31;4993955;28;20489;-57
2021/05/12 06:12:36;;;;;;;0.30;0.20;;;;;;;13.71;100.00;99835.97;4993813;28;20454;-57
2021/05/12 06:15:03;;;;;;;0.30;0.20;;;;;;;13.59;100.00;99840.09;4993532;28;20547;-57
2021/05/12 06:17:51;;;;;;;0.30;0.20;;;;;;;14.01;100.00;99838.91;4977788;28;20453;-57
2021/05/12 06:20:18;;;;;;;0.30;0.20;;;;;;;13.94;100.00;99847.22;4993483;28;21027;-57
2021/05/12 06:22:44;;;;;;;0.30;0.20;;;;;;;13.89;100.00;99857.28;4993612;28;20461;-57
2021/05/12 06:25:12;;;;;;;0.30;0.20;;;;;;;13.91;100.00;99846.53;4993169;28;20831;-57
2021/05/12 06:27:42;;;;;;;0.30;0.20;;;;;;;13.83;100.00;99846.88;4993789;28;20456;-57
2021/05/12 06:30:10;;;;;;;0.30;0.20;;;;;;;13.94;100.00;99843.69;4992451;28;20994;-57
2021/05/12 06:32:36;;;;;;;0.30;0.20;;;;;;;13.97;100.00;99850.69;4993549;28;20457;-57
2021/05/12 06:35:03;;;;;;;0.30;0.20;;;;;;;14.50;100.00;99859.56;4993379;28;20551;-57
2021/05/12 06:37:30;;;;;;;0.30;0.20;;;;;;;14.37;100.00;99858.44;4993357;28;20545;-57
2021/05/12 06:39:57;;;;;;;0.30;0.20;;;;;;;14.31;100.00;99850.72;4992899;28;20977;-57
2021/05/12 06:42:23;;;;;;;0.30;0.20;;;;;;;14.36;100.00;99859.38;4993568;28;20453;-57
2021/05/12 06:44:50;;;;;;;0.30;0.30;;;;;;;14.27;100.00;99859.88;4992712;28;20481;-57
2021/05/12 06:47:16;;;;;;;0.40;0.30;;;;;;;14.38;100.00;99854.81;4993322;28;20454;-57
2021/05/12 06:49:43;;;;;;;0.30;0.20;;;;;;;14.40;100.00;99852.94;4992963;28;20505;-57
2021/05/12 06:52:09;;;;;;;0.70;0.70;;;;;;;14.80;100.00;99853.56;4993110;28;20480;-57
2021/05/12 06:54:36;;;;;;;0.30;0.20;;;;;;;14.63;100.00;99857.13;4992766;28;20536;-57
2021/05/12 06:57:03;;;;;;;15.80;1.33;;;;;;;14.92;100.00;99852.03;4993010;28;20458;-57
2021/05/12 06:59:29;;;;;;;0.30;0.20;;;;;;;14.85;100.00;99851.50;4993018;28;20449;-57
2021/05/12 07:01:56;;;;;;;0.30;0.20;;;;;;;14.84;100.00;99852.47;5001606;28;20476;-57
2021/05/12 07:04:24;;;;;;;0.30;0.20;;;;;;;14.85;100.00;99862.22;4982257;28;20469;-57
2021/05/12 07:06:51;;;;;;;0.30;0.20;;;;;;;15.24;99.63;99853.00;4993142;28;20500;-57
2021/05/12 07:09:17;;;;;;;0.30;0.20;;;;;;;15.10;99.22;99859.09;4992839;28;20556;-57
2021/05/12 07:11:44;;;;;;;0.30;0.20;;;;;;;15.04;99.33;99860.28;4993066;28;20476;-57
2021/05/12 07:14:10;;;;;;;0.30;0.20;;;;;;;15.14;99.61;99863.34;4992473;28;20465;-57
2021/05/12 07:16:37;;;;;;;0.30;0.20;;;;;;;15.13;98.71;99864.28;4992724;28;20462;-57
2021/05/12 07:19:05;;;;;;;0.40;0.20;;;;;;;15.25;99.38;99855.59;4992930;28;20453;-57
2021/05/12 07:21:31;;;;;;;0.30;0.20;;;;;;;15.29;99.04;99848.25;4992691;28;20504;-57
2021/05/12 07:23:58;;;;;;;0.30;0.20;;;;;;;15.57;98.65;99852.94;4992547;28;20982;-57
2021/05/12 07:26:25;;;;;;;0.30;0.20;;;;;;;15.91;96.58;99849.25;4992426;28;20993;-57
2021/05/12 07:28:52;;;;;;;0.40;0.20;;;;;;;15.57;96.64;99848.44;4992535;28;20453;-57
2021/05/12 07:31:20;;;;;;;0.40;0.40;;;;;;;15.49;97.39;99842.66;4992894;28;20449;-57
2021/05/12 07:33:47;;;;;;;0.30;0.20;;;;;;;15.33;97.06;99852.47;4992627;28;20483;-57
2021/05/12 07:36:14;;;;;;;0.30;0.20;;;;;;;15.46;96.21;99848.16;4975026;28;20450;-57
2021/05/12 07:38:41;;;;;;;0.30;0.20;;;;;;;15.32;98.77;99845.38;4979655;28;20503;-57
2021/05/12 07:41:07;;;;;;;0.40;0.20;;;;;;;15.45;97.36;99845.56;4976006;28;20449;-57
2021/05/12 07:43:34;;;;;;;0.30;0.20;;;;;;;15.62;97.57;99837.47;4983086;28;20862;-57
2021/05/12 07:46:01;;;;;;;0.30;0.20;;;;;;;15.65;96.58;99846.22;4996388;28;20500;-57
2021/05/12 07:48:28;;;;;;;0.30;0.20;;;;;;;15.87;96.40;99839.63;4996696;28;20453;-57
2021/05/12 07:50:56;;;;;;;0.30;0.20;;;;;;;15.79;95.36;99836.53;4996359;28;20495;-57
2021/05/12 07:53:23;;;;;;;0.40;0.20;;;;;;;16.18;93.54;99836.06;4996300;28;20888;-57
2021/05/12 07:55:50;;;;;;;0.30;0.20;;;;;;;16.07;94.82;99822.41;4996067;28;20445;-57
2021/05/12 07:58:17;;;;;;;0.30;0.20;;;;;;;15.68;94.32;99835.34;4996358;28;20503;-57
2021/05/12 08:00:45;;;;;;;0.40;0.20;;;;;;;15.81;95.60;99834.63;4996203;28;20496;-57
2021/05/12 08:03:12;;;;;;;0.40;0.30;;;;;;;15.63;96.60;99836.56;4990384;28;20994;-57
2021/05/12 08:05:39;;;;;;;0.40;0.20;;;;;;;15.87;95.31;99837.81;4996294;28;20863;-57
2021/05/12 08:08:05;;;;;;;0.40;0.20;;;;;;;15.76;93.47;99839.38;4995773;28;20480;-57
2021/05/12 08:10:32;;;;;;;0.30;0.20;;;;;;;15.99;92.88;99841.59;4996182;28;20497;-57
2021/05/12 08:12:59;;;;;;;0.40;0.20;;;;;;;16.18;92.28;99839.59;4996069;28;20468;-57
2021/05/12 08:15:25;;;;;;;0.40;0.20;;;;;;;15.81;93.54;99848.03;4996051;28;20523;-57
2021/05/12 08:17:52;;;;;;;0.40;0.20;;;;;;;15.74;93.48;99843.97;4995806;28;20540;-57
2021/05/12 08:20:19;;;;;;;0.40;0.30;;;;;;;15.55;93.83;99855.69;4983020;28;20450;-57
2021/05/12 08:22:46;;;;;;;0.30;0.20;;;;;;;15.88;93.58;99844.91;4995604;28;20449;-57
2021/05/12 08:25:13;;;;;;;0.33;0.20;;;;;;;16.23;93.22;99840.19;4996087;28;20901;-57
2021/05/12 08:27:42;;;;;;;0.40;0.20;;;;;;;15.80;91.89;99838.28;4978706;28;20977;-57
2021/05/12 08:30:11;;;;;;;0.40;0.20;;;;;;;15.67;93.36;99835.41;4982244;28;20494;-57
2021/05/12 08:32:38;;;;;;;0.40;0.20;;;;;;;16.01;93.57;99839.69;4996086;28;20449;-57
2021/05/12 08:35:05;;;;;;;0.40;0.20;;;;;;;16.18;93.18;99838.72;4996090;28;20461;-57
2021/05/12 08:37:32;;;;;;;0.40;0.20;;;;;;;16.11;91.54;99840.03;4995568;28;20453;-57
2021/05/12 08:39:59;;;;;;;0.47;0.40;;;;;;;16.25;91.26;99838.25;4995948;28;20773;-57
2021/05/12 08:42:26;;;;;;;0.40;0.20;;;;;;;16.16;91.99;99837.94;4995946;28;20484;-58
2021/05/12 08:44:55;;;;;;;0.40;0.20;;;;;;;16.37;89.54;99839.34;4995658;28;20477;-55
2021/05/12 08:47:24;;;;;;;0.40;0.30;;;;;;;16.23;90.70;99837.50;4995386;28;20458;-55
2021/05/12 08:49:53;;;;;;;0.87;0.57;;;;;;;16.53;90.85;99840.16;4994744;28;20493;-55
2021/05/12 08:52:22;;;;;;;0.87;0.87;;;;;;;16.26;90.44;99834.63;4978474;28;20460;-55
2021/05/12 08:54:50;;;;;;;0.40;0.20;;;;;;;16.28;90.00;99830.03;4981622;28;20552;-55
2021/05/12 08:57:16;;;;;;;0.40;0.20;;;;;;;16.21;89.75;99825.13;4995256;28;20450;-55
2021/05/12 08:59:43;;;;;;;3.37;2.47;;;;;;;16.28;89.11;99816.63;4977766;28;20993;-55
2021/05/12 09:02:10;;;;;;;0.40;0.20;;;;;;;16.52;89.30;99826.84;5003506;28;20890;-55
2021/05/12 09:04:37;;;;;;;0.40;0.20;;;;;;;16.56;89.13;99820.31;4982627;28;20473;-55
2021/05/12 09:07:04;;;;;;;0.40;0.20;;;;;;;16.58;88.51;99824.66;4995017;28;20450;-55
2021/05/12 09:09:31;;;;;;;0.40;0.20;;;;;;;16.60;87.41;99824.56;4977396;28;20818;-55
2021/05/12 09:11:58;;;;;;;0.80;0.80;;;;;;;16.73;86.54;99813.97;4982515;28;20454;-55
2021/05/12 09:14:36;;;;;;;0.40;0.20;;;;;;;16.54;89.21;99819.56;4994169;28;20469;-55
2021/05/12 09:17:03;;;;;;;0.40;0.20;;;;;;;16.89;86.88;99825.50;4994835;28;20452;-55
2021/05/12 09:19:32;;;;;;;0.40;0.20;;;;;;;16.98;85.53;99818.66;4994796;28;20818;-55
2021/05/12 09:22:01;;;;;;;0.50;0.50;;;;;;;16.55;87.40;99813.22;4994858;28;20980;-55
2021/05/12 09:24:35;;;;;;;0.40;0.20;;;;;;;16.69;87.65;99810.59;4994730;28;20466;-55
2021/05/12 09:27:05;;;;;;;0.40;0.20;;;;;;;16.59;87.11;99820.16;4995792;28;20460;-55
2021/05/12 09:29:38;;;;;;;0.43;0.30;;;;;;;16.90;85.31;99813.78;4994486;28;20462;-55
2021/05/12 09:32:10;;;;;;;0.40;0.20;;;;;;;16.68;86.04;99818.75;4994462;28;20452;-55
2021/05/12 09:34:50;;;;;;;0.40;0.20;;;;;;;16.89;86.76;99822.81;4994282;28;20492;-55
2021/05/12 09:37:34;;;;;;;0.40;0.30;;;;;;;16.74;87.22;99821.06;4975074;28;20440;-55
2021/05/12 09:40:08;;;;;;;0.40;0.20;;;;;;;16.95;86.31;99825.09;4973590;28;20476;-55
2021/05/12 09:42:37;;;;;;;0.40;0.20;;;;;;;16.77;85.81;99821.75;4983085;28;20485;-55
2021/05/12 09:45:20;;;;;;;0.40;0.20;;;;;;;16.84;86.59;99828.44;4992594;28;20498;-55
2021/05/12 09:47:54;;;;;;;0.40;0.20;;;;;;;17.07;85.03;99820.78;4993937;28;20465;-55
2021/05/12 09:50:26;;;;;;;0.40;0.20;;;;;;;17.14;84.23;99828.38;4994152;28;20497;-55
2021/05/12 09:52:58;;;;;;;0.40;0.20;;;;;;;16.79;84.37;99827.88;4994110;28;20461;-55
2021/05/12 09:55:36;;;;;;;0.40;0.20;;;;;;;16.80;84.86;99829.59;4994567;28;20454;-55
2021/05/12 09:58:05;;;;;;;0.40;0.20;;;;;;;16.76;85.18;99821.84;4994040;28;20512;-55
2021/05/12 10:00:34;;;;;;;0.40;0.20;;;;;;;17.01;83.86;99816.66;4993586;28;20504;-55
2021/05/12 10:03:04;;;;;;;0.40;0.20;;;;;;;16.49;86.32;99818.97;5004920;28;20477;-55
2021/05/12 10:05:55;;;;;;;0.40;0.30;;;;;;;16.92;84.10;99819.06;4980113;28;20446;-55
2021/05/12 10:08:31;;;;;;;0.40;0.20;;;;;;;17.00;84.47;99816.78;4969541;28;20469;-55
2021/05/12 10:11:02;;;;;;;0.40;0.20;;;;;;;16.66;85.15;99813.44;4991432;28;20998;-55
2021/05/12 10:13:31;;;;;;;0.40;0.20;;;;;;;16.55;87.46;99807.84;4993906;28;20469;-55
2021/05/12 10:15:59;;;;;;;0.40;0.20;;;;;;;16.55;84.15;99813.22;4993340;28;20453;-54
2021/05/12 10:18:25;;;;;;;0.40;0.20;;;;;;;16.68;85.00;99797.28;4993754;28;20462;-54
2021/05/12 10:21:02;;;;;;;0.40;0.20;;;;;;;16.57;86.97;99806.81;4992969;28;20454;-55
2021/05/12 10:23:29;;;;;;;0.40;0.20;;;;;;;16.42;84.27;99812.25;4992477;28;20485;-54
2021/05/12 10:25:58;;;;;;;0.40;0.20;;;;;;;16.52;84.77;99808.91;4985943;28;20453;-55
2021/05/12 10:28:26;;;;;;;0.37;0.20;;;;;;;16.28;84.75;99823.81;4988124;28;20455;-55
2021/05/12 10:30:54;;;;;;;0.40;0.20;;;;;;;16.19;84.96;99817.19;4993313;28;20563;-54
2021/05/12 10:33:48;;;;;;;0.40;0.20;;;;;;;16.27;84.10;99814.88;4993155;28;20552;-55
2021/05/12 10:36:21;;;;;;;0.40;0.20;;;;;;;16.55;84.70;99815.91;4993031;28;20454;-55
2021/05/12 10:38:48;;;;;;;0.40;0.20;;;;;;;16.41;85.48;99802.47;4992875;28;20853;-55
2021/05/12 10:41:39;;;;;;;0.40;0.20;;;;;;;16.62;85.35;99803.88;4973944;28;20983;-55
2021/05/12 10:44:12;;;;;;;0.40;0.20;;;;;;;16.44;85.42;99803.13;4973595;28;20540;-55
2021/05/12 10:47:09;;;;;;;0.40;0.20;;;;;;;16.96;83.77;99799.09;4990753;28;20449;-55
2021/05/12 10:49:37;;;;;;;0.40;0.20;;;;;;;16.58;84.44;99799.63;4993080;28;20536;-55
2021/05/12 10:52:08;;;;;;;0.40;0.20;;;;;;;17.30;83.21;99798.72;4993139;28;20454;-55
2021/05/12 10:54:41;;;;;;;0.33;0.20;;;;;;;17.04;83.17;99794.13;4992902;28;20469;-55
2021/05/12 10:57:09;;;;;;;0.40;0.30;;;;;;;16.97;82.13;99799.00;4992831;28;20938;-55
2021/05/12 10:59:40;;;;;;;0.40;0.20;;;;;;;17.42;82.93;99794.38;4993242;28;20450;-55
2021/05/12 11:02:08;;;;;;;0.40;0.20;;;;;;;17.05;82.96;99782.44;5003243;28;20502;-55
2021/05/12 11:04:34;;;;;;;0.40;0.20;;;;;;;17.94;81.30;99774.81;4981167;28;20452;-55
2021/05/12 11:07:06;;;;;;;0.40;0.20;;;;;;;18.32;78.40;99775.75;4992931;28;20507;-55
2021/05/12 11:09:42;;;;;;;0.40;0.30;;;;;;;17.86;77.02;99766.41;4973377;28;20481;-55
2021/05/12 11:12:11;;;;;;;0.40;0.30;;;;;;;18.04;73.67;99765.16;4987730;28;20950;-55
2021/05/12 11:14:39;;;;;;;0.40;0.20;;;;;;;18.54;66.55;99760.84;4992590;28;20560;-55
2021/05/12 11:17:08;;;;;;;0.40;0.30;;;;;;;18.67;64.76;99752.78;4992536;28;20835;-55
2021/05/12 11:19:42;;;;;;;0.40;0.20;;;;;;;18.70;58.40;99753.44;4993019;28;20500;-55
2021/05/12 11:22:29;;;;;;;0.40;0.20;;;;;;;18.88;57.54;99749.41;4975360;28;20477;-55
2021/05/12 11:33:29;;;;;;;0.40;0.20;;;;;;;19.08;60.29;99745.31;4992498;28;20508;-55
2021/05/12 11:36:04;;;;;;;0.40;0.20;;;;;;;18.44;61.44;99743.59;4975359;28;20449;-55
2021/05/12 11:38:32;;;;;;;0.40;0.20;;;;;;;18.78;61.54;99747.50;4962410;28;20431;-55
2021/05/12 11:40:59;;;;;;;0.40;0.20;;;;;;;18.62;61.74;99745.84;4992548;28;20464;-55
2021/05/12 11:43:41;;;;;;;0.40;0.20;;;;;;;19.26;60.56;99739.53;4992245;28;20448;-54
2021/05/12 11:46:18;;;;;;;0.40;0.20;;;;;;;19.35;61.27;99737.03;4992752;28;20446;-54